Time;durP1;ratioP1;P1;durP2;ratioP2;P2;SDS_P1;SDS_P2;PMS_P1;PMS_P2;Temp;Humidity;BMP_temperature;BMP_pressure;BME280_temperature;BME280_humidity;BME280_pressure;Samples;Min_cycle;Max_cycle;Signal;HPM_P1;HPM_P2
2023/05/04 00:00:18;;;;;;;;;2.00;2.00;;;;;21.74;46.17;101909.27;110234;1251;19473;-39
2023/05/04 00:03:06;;;;;;;;;1.00;1.00;;;;;21.75;46.10;101907.36;110241;1265;21588;-38
2023/05/04 00:05:33;;;;;;;;;2.00;2.00;;;;;21.75;46.18;101911.36;110258;1265;19765;-38
2023/05/04 00:08:00;;;;;;;;;2.00;2.00;;;;;21.74;46.19;101909.10;110196;1251;22149;-38
2023/05/04 00:10:28;;;;;;;;;1.50;1.50;;;;;21.75;46.17;101911.39;110200;1251;20033;-38
2023/05/04 00:12:55;;;;;;;;;1.00;1.00;;;;;21.74;46.30;101913.98;110211;1251;20496;-38
2023/05/04 00:15:22;;;;;;;;;1.00;1.00;;;;;21.75;46.13;101913.34;110243;1265;17876;-38
2023/05/04 00:17:50;;;;;;;;;1.00;1.00;;;;;21.75;46.12;101918.22;110176;1265;18574;-38
2023/05/04 00:20:17;;;;;;;;;2.00;2.00;;;;;21.74;45.99;101915.45;110201;1265;18197;-38
2023/05/04 00:22:45;;;;;;;;;2.00;2.00;;;;;21.74;45.99;101917.12;110250;1251;19395;-38
2023/05/04 00:25:12;;;;;;;;;2.00;2.00;;;;;21.74;46.09;101916.84;110171;1265;19853;-37
2023/05/04 00:27:39;;;;;;;;;2.00;2.00;;;;;21.74;45.97;101913.40;110179;1250;20278;-37
2023/05/04 00:30:07;;;;;;;;;2.00;2.00;;;;;21.74;46.14;101910.30;110216;1260;22017;-38
2023/05/04 00:32:34;;;;;;;;;2.00;2.00;;;;;21.74;46.08;101905.63;110253;1265;20168;-37
2023/05/04 00:35:02;;;;;;;;;2.00;2.00;;;;;21.75;46.00;101908.64;110218;1257;18117;-38
2023/05/04 00:37:29;;;;;;;;;2.00;2.00;;;;;21.74;46.05;101907.94;110197;1249;19857;-38
2023/05/04 00:39:56;;;;;;;;;2.00;2.00;;;;;21.74;46.10;101906.64;110196;1265;18532;-38
2023/05/04 00:42:24;;;;;;;;;2.00;2.00;;;;;21.74;46.02;101906.20;110135;1250;20112;-37
2023/05/04 00:44:51;;;;;;;;;1.00;1.00;;;;;21.74;45.94;101906.72;110114;1251;103988;-40
2023/05/04 00:47:20;;;;;;;;;2.00;2.00;;;;;21.74;46.12;101905.11;110187;1260;18661;-40
2023/05/04 00:49:47;;;;;;;;;1.00;1.00;;;;;21.74;46.04;101903.47;110177;1251;19654;-39
2023/05/04 00:52:15;;;;;;;;;1.00;1.00;;;;;21.72;46.05;101904.52;110143;1260;18997;-38
2023/05/04 00:54:42;;;;;;;;;1.33;1.00;;;;;21.73;46.16;101907.77;110164;1265;19900;-38
2023/05/04 00:57:09;;;;;;;;;1.00;1.00;;;;;21.73;46.17;101910.11;110144;1251;19694;-38
2023/05/04 00:59:38;;;;;;;;;2.00;2.00;;;;;21.72;46.23;101907.05;110192;1251;18750;-39
2023/05/04 01:02:05;;;;;;;;;1.00;1.00;;;;;21.73;46.08;101907.18;110248;1265;18658;-38
2023/05/04 01:04:32;;;;;;;;;1.00;1.00;;;;;21.72;46.00;101907.52;110254;1251;19951;-38
2023/05/04 01:07:00;;;;;;;;;2.00;2.00;;;;;21.72;46.10;101906.54;110236;1251;19353;-38
2023/05/04 01:09:27;;;;;;;;;2.00;2.00;;;;;21.72;45.93;101907.08;110224;1259;20011;-38
2023/05/04 01:11:54;;;;;;;;;1.00;1.00;;;;;21.73;46.02;101904.50;110221;1265;18161;-38
2023/05/04 01:14:22;;;;;;;;;2.00;2.00;;;;;21.72;45.97;101904.70;110285;1251;19329;-38
2023/05/04 01:16:49;;;;;;;;;1.00;1.00;;;;;21.72;45.98;101904.15;110239;1265;18601;-38
2023/05/04 01:19:16;;;;;;;;;1.50;1.50;;;;;21.71;46.03;101901.35;110209;1251;20906;-39
2023/05/04 01:21:44;;;;;;;;;2.00;2.00;;;;;21.71;46.06;101899.67;110184;1265;17879;-38
2023/05/04 01:24:11;;;;;;;;;2.00;2.00;;;;;21.71;45.86;101897.92;110243;1265;19206;-39
2023/05/04 01:26:38;;;;;;;;;2.00;2.00;;;;;21.71;46.05;101900.80;110213;1265;18143;-40
2023/05/04 01:29:06;;;;;;;;;1.50;1.00;;;;;21.72;45.96;101905.48;110211;1265;20831;-40
2023/05/04 01:31:33;;;;;;;;;1.50;1.50;;;;;21.72;46.00;101904.90;110244;1251;19989;-39
2023/05/04 01:34:00;;;;;;;;;2.00;2.00;;;;;21.73;46.04;101909.40;110181;1257;20344;-39
2023/05/04 01:36:28;;;;;;;;;1.00;1.00;;;;;21.73;45.89;101905.92;110197;1266;17850;-39
2023/05/04 01:38:55;;;;;;;;;2.00;1.00;;;;;21.72;45.98;101906.17;110202;1260;19905;-43
2023/05/04 01:41:22;;;;;;;;;2.00;2.00;;;;;21.72;45.87;101912.02;110196;1265;19338;-39
2023/05/04 01:43:50;;;;;;;;;1.00;1.00;;;;;21.72;46.09;101907.32;110203;1251;19339;-39
2023/05/04 01:46:17;;;;;;;;;2.00;1.00;;;;;21.73;45.93;101907.60;110196;1265;20446;-39
2023/05/04 01:48:44;;;;;;;;;1.00;1.00;;;;;21.73;46.00;101905.77;110233;1251;19934;-39
2023/05/04 01:51:12;;;;;;;;;1.00;1.00;;;;;21.73;45.93;101911.69;110224;1251;19328;-39
2023/05/04 01:53:39;;;;;;;;;2.00;2.00;;;;;21.72;46.01;101903.67;110197;1265;18524;-39
2023/05/04 01:56:07;;;;;;;;;1.00;1.00;;;;;21.71;45.83;101902.44;110225;1265;18212;-40
2023/05/04 01:58:34;;;;;;;;;1.50;1.50;;;;;21.72;46.00;101898.20;110210;1251;19352;-40
2023/05/04 02:01:01;;;;;;;;;1.00;1.00;;;;;21.71;45.91;101901.17;110240;1250;19979;-40
2023/05/04 02:03:30;;;;;;;;;1.00;1.00;;;;;21.70;45.87;101895.27;110247;1257;19544;-40
2023/05/04 02:05:57;;;;;;;;;2.00;1.50;;;;;21.71;45.88;101899.79;110203;1265;17843;-39
2023/05/04 02:08:25;;;;;;;;;1.00;1.00;;;;;21.70;46.01;101899.09;110223;1265;18535;-39
2023/05/04 02:10:52;;;;;;;;;2.00;2.00;;;;;21.70;45.95;101896.58;110206;1250;19642;-39
2023/05/04 02:13:20;;;;;;;;;2.00;2.00;;;;;21.70;45.84;101898.75;110220;1250;18050;-39
2023/05/04 02:15:47;;;;;;;;;2.00;2.00;;;;;21.69;45.96;101901.00;110263;1265;19237;-39
2023/05/04 02:18:14;;;;;;;;;1.00;1.00;;;;;21.69;45.98;101895.95;110229;1266;19661;-39
2023/05/04 02:20:42;;;;;;;;;1.00;1.00;;;;;21.69;45.98;101895.95;110243;1260;17853;-39
2023/05/04 02:23:09;;;;;;;;;1.00;1.00;;;;;21.70;45.89;101897.66;110265;1257;19968;-39
2023/05/04 02:25:36;;;;;;;;;1.00;1.00;;;;;21.69;45.74;101898.48;110214;1260;19891;-41
2023/05/04 02:28:04;;;;;;;;;2.00;2.00;;;;;21.69;45.69;101894.17;110232;1265;19443;-41
2023/05/04 02:30:31;;;;;;;;;1.00;1.00;;;;;21.69;45.75;101897.17;110189;1265;21813;-40
2023/05/04 02:32:58;;;;;;;;;2.00;2.00;;;;;21.69;46.02;101897.52;110209;1266;19545;-42
2023/05/04 02:35:25;;;;;;;;;2.00;2.00;;;;;21.70;45.83;101898.42;110234;1265;17899;-40
2023/05/04 02:37:53;;;;;;;;;2.00;2.00;;;;;21.69;45.84;101894.61;110181;1251;21524;-40
2023/05/04 02:40:20;;;;;;;;;2.00;2.00;;;;;21.69;45.86;101895.80;110212;1251;19561;-42
2023/05/04 02:42:48;;;;;;;;;1.00;1.00;;;;;21.69;45.76;101894.68;110276;1265;17903;-39
2023/05/04 02:45:15;;;;;;;;;2.00;2.00;;;;;21.67;45.80;101896.48;110204;1249;19603;-40
2023/05/04 02:47:42;;;;;;;;;2.00;2.00;;;;;21.67;45.77;101892.52;110192;1265;20914;-40
2023/05/04 02:50:10;;;;;;;;;1.00;1.00;;;;;21.69;45.80;101892.84;110185;1250;19322;-39
2023/05/04 02:52:37;;;;;;;;;1.50;1.50;;;;;21.69;45.68;101886.30;110201;1265;21467;-39
2023/05/04 02:55:05;;;;;;;;;1.00;1.00;;;;;21.68;45.60;101884.21;110170;1251;19633;-39
2023/05/04 02:57:32;;;;;;;;;1.00;1.00;;;;;21.68;45.78;101886.60;110206;1265;17847;-39
2023/05/04 03:00:00;;;;;;;;;2.00;2.00;;;;;21.69;45.71;101883.58;110168;1266;18680;-39
2023/05/04 03:02:27;;;;;;;;;1.00;1.00;;;;;21.69;45.76;101887.08;110151;1260;19534;-39
2023/05/04 03:04:54;;;;;;;;;1.00;1.00;;;;;21.69;45.65;101893.59;110158;1249;20191;-39
2023/05/04 03:07:22;;;;;;;;;2.00;2.00;;;;;21.68;45.87;101894.92;110240;1259;19870;-38
2023/05/04 03:09:49;;;;;;;;;1.00;1.00;;;;;21.68;45.83;101891.13;110193;1251;19570;-39
2023/05/04 03:12:16;;;;;;;;;2.00;1.00;;;;;21.69;45.54;101893.80;110225;1251;19366;-39
2023/05/04 03:14:45;;;;;;;;;1.00;1.00;;;;;21.69;45.67;101890.90;110214;1257;19227;-40
2023/05/04 03:17:12;;;;;;;;;1.00;1.00;;;;;21.67;45.61;101885.77;110210;1250;18179;-39
2023/05/04 03:19:39;;;;;;;;;1.00;1.00;;;;;21.67;45.60;101882.19;110176;1265;17802;-39
2023/05/04 03:22:07;;;;;;;;;1.00;1.00;;;;;21.67;45.64;101885.27;110215;1251;20065;-39
2023/05/04 03:24:35;;;;;;;;;1.00;1.00;;;;;21.66;45.68;101882.42;110197;1265;19144;-39
2023/05/04 03:27:03;;;;;;;;;2.00;2.00;;;;;21.67;45.73;101886.39;110251;1266;18029;-39
2023/05/04 03:29:30;;;;;;;;;1.00;1.00;;;;;21.66;45.75;101878.80;110202;1265;18578;-39
2023/05/04 03:31:57;;;;;;;;;2.00;2.00;;;;;21.65;45.83;101882.86;110212;1251;19707;-39
2023/05/04 03:34:25;;;;;;;;;2.00;2.00;;;;;21.66;45.73;101883.18;110215;1251;19575;-39
2023/05/04 03:36:52;;;;;;;;;1.00;1.00;;;;;21.67;45.78;101880.55;110181;1249;21240;-39
2023/05/04 03:39:20;;;;;;;;;2.00;2.00;;;;;21.66;45.58;101881.20;110185;1251;18202;-39
2023/05/04 03:41:48;;;;;;;;;2.00;1.00;;;;;21.66;45.59;101884.78;110201;1265;19163;-41
2023/05/04 03:44:15;;;;;;;;;1.00;1.00;;;;;21.65;45.62;101882.86;110190;1265;18565;-39
2023/05/04 03:46:43;;;;;;;;;1.00;1.00;;;;;21.66;45.60;101884.95;110207;1265;18172;-39
2023/05/04 03:49:10;;;;;;;;;1.00;1.00;;;;;21.66;45.56;101887.51;110180;1251;19477;-40
2023/05/04 03:51:37;;;;;;;;;2.00;1.00;;;;;21.66;45.67;101889.56;110183;1250;20094;-39
2023/05/04 03:54:04;;;;;;;;;2.00;1.00;;;;;21.66;45.48;101889.11;110191;1251;21898;-39
2023/05/04 03:56:32;;;;;;;;;2.00;2.00;;;;;21.67;45.71;101889.25;110208;1265;19263;-39
2023/05/04 03:59:00;;;;;;;;;2.00;2.00;;;;;21.68;45.59;101889.16;110208;1265;19990;-40
2023/05/04 04:01:27;;;;;;;;;2.00;2.00;;;;;21.67;45.65;101890.85;110156;1265;18182;-40
2023/05/04 04:03:54;;;;;;;;;2.00;2.00;;;;;21.67;45.75;101889.39;110221;1251;20172;-39
2023/05/04 04:06:22;;;;;;;;;1.00;1.00;;;;;21.67;45.50;101889.94;110210;1257;19784;-39
2023/05/04 04:08:49;;;;;;;;;1.00;1.00;;;;;21.67;45.50;101889.39;110175;1251;19640;-40
2023/05/04 04:11:16;;;;;;;;;1.50;1.50;;;;;21.67;45.61;101888.70;110207;1265;17837;-39
2023/05/04 04:13:44;;;;;;;;;1.00;1.00;;;;;21.67;45.69;101889.42;110188;1251;20161;-39
2023/05/04 04:16:11;;;;;;;;;1.00;1.00;;;;;21.67;45.80;101891.95;110196;1265;18235;-39
2023/05/04 04:18:38;;;;;;;;;4.00;2.00;;;;;21.68;45.85;101888.98;110195;1251;19202;-39
2023/05/04 04:21:06;;;;;;;;;1.00;1.00;;;;;21.68;45.77;101894.00;110186;1250;22934;-39
2023/05/04 04:23:33;;;;;;;;;2.00;2.00;;;;;21.68;45.65;101891.85;110188;1265;18167;-38
2023/05/04 04:26:00;;;;;;;;;1.00;1.00;;;;;21.69;45.75;101893.96;110191;1257;22766;-39
2023/05/04 04:28:28;;;;;;;;;1.00;1.00;;;;;21.69;45.80;101896.88;110198;1260;18583;-39
2023/05/04 04:30:55;;;;;;;;;1.00;1.00;;;;;21.68;45.70;101894.41;110188;1251;19658;-39
2023/05/04 04:33:23;;;;;;;;;2.00;2.00;;;;;21.68;45.75;101894.58;110213;1265;19590;-39
2023/05/04 04:35:51;;;;;;;;;2.00;2.00;;;;;21.68;45.75;101896.19;110201;1257;19902;-39
2023/05/04 04:38:18;;;;;;;;;1.00;1.00;;;;;21.69;45.84;101898.68;110194;1260;22027;-40
2023/05/04 04:40:46;;;;;;;;;1.00;1.00;;;;;21.68;45.77;101897.14;110200;1251;19517;-39
2023/05/04 04:43:13;;;;;;;;;2.00;2.00;;;;;21.69;45.85;101897.21;110226;1260;19873;-39
2023/05/04 04:45:41;;;;;;;;;1.00;1.00;;;;;21.69;45.89;101897.24;109980;1266;18205;-39
2023/05/04 04:48:08;;;;;;;;;2.00;2.00;;;;;21.69;45.78;101895.40;110055;1260;17969;-40
2023/05/04 04:50:35;;;;;;;;;2.00;2.00;;;;;21.71;45.61;101894.11;110033;1260;22192;-40
2023/05/04 04:53:03;;;;;;;;;1.00;1.00;;;;;21.72;45.73;101899.67;109998;1266;18234;-39
2023/05/04 04:55:30;;;;;;;;;2.00;2.00;;;;;21.73;45.90;101898.97;110037;1251;20536;-39
2023/05/04 04:57:58;;;;;;;;;1.00;1.00;;;;;21.74;45.87;101897.09;110006;1266;18601;-39
2023/05/04 05:00:25;;;;;;;;;1.50;1.50;;;;;21.74;46.06;101898.02;110023;1260;21013;-39
2023/05/04 05:02:53;;;;;;;;;2.00;2.00;;;;;21.74;45.80;101896.75;110047;1250;19295;-40
2023/05/04 05:05:20;;;;;;;;;2.00;2.00;;;;;21.75;45.77;101900.01;110020;1250;19975;-39
2023/05/04 05:07:47;;;;;;;;;1.33;1.33;;;;;21.77;46.02;101899.48;110027;1251;19685;-40
2023/05/04 05:10:14;;;;;;;;;1.00;1.00;;;;;21.78;45.80;101896.48;110011;1251;21664;-39
2023/05/04 05:12:42;;;;;;;;;1.50;1.50;;;;;21.79;46.11;101896.73;110064;1250;18579;-38
2023/05/04 05:15:09;;;;;;;;;2.00;2.00;;;;;21.81;46.37;101899.58;110032;1266;18559;-39
2023/05/04 05:17:37;;;;;;;;;2.00;2.00;;;;;21.83;46.31;101895.80;109848;1251;22071;-39
2023/05/04 05:20:08;;;;;;;;;1.00;1.00;;;;;21.86;46.48;101897.83;109950;1250;19914;-39
2023/05/04 05:22:36;;;;;;;;;2.00;2.00;;;;;21.85;46.65;101893.93;109981;1251;19681;-42
2023/05/04 05:25:03;;;;;;;;;1.00;1.00;;;;;21.85;46.72;101892.47;109990;1266;18881;-41
2023/05/04 05:27:31;;;;;;;;;1.00;1.00;;;;;21.86;46.84;101893.32;109950;1250;21465;-39
2023/05/04 05:29:58;;;;;;;;;2.00;2.00;;;;;21.86;47.06;101897.65;109921;1250;19703;-40
2023/05/04 05:32:25;;;;;;;;;2.00;1.50;;;;;21.86;47.00;101899.27;110059;1251;19290;-38
2023/05/04 05:34:53;;;;;;;;;4.00;2.00;;;;;21.86;46.89;101898.69;110027;1250;20039;-39
2023/05/04 05:37:20;;;;;;;;;1.00;1.00;;;;;21.86;46.68;101901.45;110026;1251;20699;-39
2023/05/04 05:39:47;;;;;;;;;4.00;2.00;;;;;21.88;46.82;101898.54;110038;1250;19296;-38
2023/05/04 05:42:15;;;;;;;;;1.00;1.00;;;;;21.88;46.81;101896.92;110007;1251;20756;-38
2023/05/04 05:44:42;;;;;;;;;1.50;1.50;;;;;21.88;46.72;101900.90;109956;1257;18231;-38
2023/05/04 05:47:09;;;;;;;;;1.00;1.00;;;;;21.90;46.71;101898.97;109951;1266;18515;-38
2023/05/04 05:49:37;;;;;;;;;2.00;2.00;;;;;21.92;46.64;101899.78;110038;1266;19344;-38
2023/05/04 05:52:04;;;;;;;;;1.00;1.00;;;;;21.94;46.95;101900.67;110033;1253;19677;-38
2023/05/04 05:54:31;;;;;;;;;2.00;2.00;;;;;21.95;46.94;101900.06;110045;1260;20661;-38
2023/05/04 05:56:59;;;;;;;;;1.00;1.00;;;;;21.94;46.74;101903.54;110094;1266;19347;-38
2023/05/04 05:59:26;;;;;;;;;2.00;2.00;;;;;21.94;46.90;101902.34;110026;1253;19660;-38
2023/05/04 06:01:53;;;;;;;;;2.00;2.00;;;;;21.93;46.91;101903.44;110062;1267;19624;-41
2023/05/04 06:04:21;;;;;;;;;2.00;2.00;;;;;21.91;46.71;101900.95;110047;1261;19303;-38
2023/05/04 06:06:48;;;;;;;;;5.00;5.00;;;;;21.90;46.65;101901.45;110071;1254;18499;-38
2023/05/04 06:09:15;;;;;;;;;8.00;7.00;;;;;21.84;45.86;101900.44;110053;1266;18635;-38
2023/05/04 06:11:43;;;;;;;;;7.00;7.00;;;;;21.84;45.69;101905.14;110014;1253;20775;-38
2023/05/04 06:14:10;;;;;;;;;7.00;7.00;;;;;21.89;45.71;101903.04;110059;1254;19639;-39
2023/05/04 06:16:37;;;;;;;;;7.00;5.00;;;;;21.94;45.50;101902.70;110031;1266;23332;-38
2023/05/04 06:19:05;;;;;;;;;4.00;4.00;;;;;21.96;45.38;101909.70;110020;1260;20766;-40
2023/05/04 06:21:32;;;;;;;;;4.50;4.00;;;;;21.98;45.63;101904.08;110014;1266;18420;-39
2023/05/04 06:24:00;;;;;;;;;5.00;4.00;;;;;21.98;45.46;101901.17;110031;1259;18658;-38
2023/05/04 06:26:27;;;;;;;;;4.00;4.00;;;;;22.02;45.49;101908.80;110033;1254;22039;-38
2023/05/04 06:28:54;;;;;;;;;7.00;7.00;;;;;22.03;45.67;101903.23;110037;1260;19570;-38
2023/05/04 06:31:23;;;;;;;;;4.00;4.00;;;;;22.04;45.67;101902.70;110027;1250;19932;-42
2023/05/04 06:33:50;;;;;;;;;4.00;4.00;;;;;22.06;45.46;101902.29;110034;1260;19770;-39
2023/05/04 06:36:17;;;;;;;;;5.00;4.00;;;;;22.09;45.54;101901.15;110017;1266;18386;-39
2023/05/04 06:38:45;;;;;;;;;2.00;2.00;;;;;22.09;45.35;101901.09;110019;1266;20062;-39
2023/05/04 06:41:12;;;;;;;;;5.00;5.00;;;;;22.11;45.45;101901.48;110038;1260;21705;-40
2023/05/04 06:43:41;;;;;;;;;4.50;4.50;;;;;22.14;45.45;101897.93;110060;1266;18435;-40
2023/05/04 06:46:08;;;;;;;;;4.00;2.00;;;;;22.21;45.68;101899.73;110029;1266;18660;-40
2023/05/04 06:48:36;;;;;;;;;5.00;4.00;;;;;22.22;45.69;101896.67;110027;1266;19413;-40
2023/05/04 06:51:03;;;;;;;;;7.00;7.00;;;;;22.18;45.59;101898.45;110036;1260;23929;-40
2023/05/04 06:53:31;;;;;;;;;4.00;4.00;;;;;22.11;45.36;101898.52;110038;1266;18606;-40
2023/05/04 06:55:58;;;;;;;;;7.33;7.33;;;;;22.07;44.94;101901.73;110038;1251;20765;-40
2023/05/04 06:58:26;;;;;;;;;12.00;12.00;;;;;22.03;43.65;101898.11;110056;1260;19573;-40
2023/05/04 07:00:53;;;;;;;;;8.00;8.00;;;;;22.00;42.55;101900.73;110076;1259;18794;-41
2023/05/04 07:03:20;;;;;;;;;15.00;15.00;;;;;21.99;42.52;101901.57;110067;1254;20789;-40
2023/05/04 07:05:49;;;;;;;;;14.00;10.00;;;;;21.97;41.42;101902.50;110020;1260;19506;-40
2023/05/04 07:08:18;;;;;;;;;15.00;13.33;;;;;21.98;41.25;101901.14;110051;1254;20279;-40
2023/05/04 07:10:45;;;;;;;;;11.00;10.67;;;;;21.97;40.47;101904.55;110027;1260;20751;-40
2023/05/04 07:13:13;;;;;;;;;17.00;15.00;;;;;21.95;40.44;101904.34;110017;1266;19970;-40
2023/05/04 07:15:40;;;;;;;;;17.00;15.00;;;;;21.77;38.84;101902.55;110022;1266;18722;-40
2023/05/04 07:18:08;;;;;;;;;15.00;14.67;;;;;21.61;38.67;101896.77;110046;1253;20739;-42
2023/05/04 07:20:35;;;;;;;;;18.33;17.33;;;;;21.61;38.47;101894.17;110053;1266;18577;-39
2023/05/04 07:23:03;;;;;;;;;19.00;16.00;;;;;21.54;38.04;101895.45;110028;1266;18718;-40
2023/05/04 07:25:31;;;;;;;;;14.50;12.00;;;;;21.52;37.62;101896.88;110050;1254;20870;-40
2023/05/04 07:27:58;;;;;;;;;14.50;14.00;;;;;21.55;37.57;101890.91;110048;1266;19864;-40
2023/05/04 07:30:26;;;;;;;;;17.00;17.00;;;;;21.56;37.10;101892.17;109997;1253;20122;-40
2023/05/04 07:32:53;;;;;;;;;16.00;14.00;;;;;21.53;37.16;101887.58;110014;1254;20741;-39
2023/05/04 07:35:20;;;;;;;;;13.00;12.00;;;;;21.54;36.97;101889.57;110038;1266;18578;-40
2023/05/04 07:37:48;;;;;;;;;14.00;13.00;;;;;21.55;36.88;101889.54;109969;1266;20044;-40
2023/05/04 07:40:15;;;;;;;;;15.00;14.00;;;;;21.53;36.54;101889.70;109993;1266;19372;-41
2023/05/04 07:42:43;;;;;;;;;18.00;15.00;;;;;21.58;36.40;101884.63;109973;1251;18634;-40
2023/05/04 07:45:10;;;;;;;;;13.00;13.00;;;;;21.62;36.35;101884.77;109974;1251;22113;-40
2023/05/04 07:47:38;;;;;;;;;14.00;11.00;;;;;21.66;36.41;101882.63;110112;1265;21048;-40
2023/05/04 07:50:05;;;;;;;;;14.00;13.00;;;;;21.65;36.50;101877.60;110178;1257;18537;-38
2023/05/04 07:52:32;;;;;;;;;11.50;11.00;;;;;21.71;36.25;101876.49;110198;1259;18846;-38
2023/05/04 07:55:00;;;;;;;;;14.00;11.00;;;;;21.74;35.95;101873.19;110195;1265;19520;-38
2023/05/04 07:57:27;;;;;;;;;13.00;11.00;;;;;21.75;35.75;101871.15;110199;1250;20173;-39
2023/05/04 07:59:55;;;;;;;;;10.00;10.00;;;;;21.74;35.63;101869.98;110189;1265;18690;-38
2023/05/04 08:02:22;;;;;;;;;10.00;10.00;;;;;21.74;35.28;101876.73;110195;1266;23076;-38
2023/05/04 08:04:49;;;;;;;;;11.50;10.00;;;;;21.72;34.95;101873.98;110219;1265;22209;-39
2023/05/04 08:07:18;;;;;;;;;11.00;10.00;;;;;21.68;34.59;101874.96;110197;1250;20104;-42
2023/05/04 08:09:45;;;;;;;;;10.00;10.00;;;;;21.68;34.46;101869.48;110228;1250;20821;-38
2023/05/04 08:12:12;;;;;;;;;10.50;10.00;;;;;21.70;34.56;101867.62;110238;1265;18575;-38
2023/05/04 08:14:40;;;;;;;;;10.50;10.00;;;;;21.72;34.40;101865.48;110247;1249;19885;-39
2023/05/04 08:17:07;;;;;;;;;9.33;8.67;;;;;21.69;34.26;101865.53;110176;1251;22722;-40
2023/05/04 08:19:34;;;;;;;;;10.67;9.33;;;;;21.72;34.20;101861.61;110196;1265;19993;-39
2023/05/04 08:22:02;;;;;;;;;12.50;11.00;;;;;21.72;34.19;101859.10;110212;1257;18766;-38
2023/05/04 08:24:30;;;;;;;;;9.00;8.00;;;;;21.71;34.12;101858.84;110237;1251;22755;-39
2023/05/04 08:26:58;;;;;;;;;10.00;10.00;;;;;21.72;34.22;101855.20;110144;1260;22350;-40
2023/05/04 08:29:25;;;;;;;;;11.00;10.00;;;;;21.72;33.88;101857.41;110160;1266;20055;-39
2023/05/04 08:31:53;;;;;;;;;13.00;10.00;;;;;21.68;33.51;101853.67;110183;1250;19343;-38
2023/05/04 08:34:20;;;;;;;;;8.00;8.00;;;;;21.69;33.25;101858.45;110166;1265;19009;-39
2023/05/04 08:36:47;;;;;;;;;11.00;7.00;;;;;21.65;33.13;101858.70;110183;1266;18611;-40
2023/05/04 08:39:15;;;;;;;;;10.00;8.00;;;;;21.62;32.71;101859.21;110162;1257;19297;-39
2023/05/04 08:41:43;;;;;;;;;7.00;7.00;;;;;21.62;32.69;101857.21;110190;1265;18979;-39
2023/05/04 08:44:10;;;;;;;;;5.00;5.00;;;;;21.65;32.22;101853.02;110239;1251;20012;-40
2023/05/04 08:46:38;;;;;;;;;6.00;6.00;;;;;21.68;32.22;101852.02;110031;1251;20728;-39
2023/05/04 08:49:05;;;;;;;;;10.00;8.00;;;;;21.71;32.00;101854.80;110048;1251;18401;-39
2023/05/04 08:51:32;;;;;;;;;8.00;8.00;;;;;21.71;31.74;101856.98;110046;1260;18879;-40
2023/05/04 08:54:00;;;;;;;;;7.00;7.00;;;;;21.68;31.67;101854.54;110049;1252;20825;-40
2023/05/04 08:56:27;;;;;;;;;8.00;7.33;;;;;21.66;31.46;101855.48;110033;1254;19664;-40
2023/05/04 08:59:00;;;;;;;;;7.00;7.00;;;;;21.64;31.46;101848.95;110036;1266;18632;-40
2023/05/04 09:01:27;;;;;;;;;8.00;8.00;;;;;21.67;31.54;101851.25;110040;1250;20621;-40
2023/05/04 09:03:55;;;;;;;;;7.50;7.00;;;;;21.69;31.51;101853.38;110035;1260;22671;-39
2023/05/04 09:06:22;;;;;;;;;7.00;5.00;;;;;21.68;31.44;101853.44;110006;1254;21365;-39
2023/05/04 09:08:49;;;;;;;;;7.67;7.67;;;;;21.70;31.54;101855.85;110032;1266;21723;-39
2023/05/04 09:11:17;;;;;;;;;8.00;7.00;;;;;21.63;31.33;101854.02;110025;1251;18432;-42
2023/05/04 09:13:44;;;;;;;;;9.00;8.00;;;;;21.58;31.31;101853.59;109990;1254;22640;-40
2023/05/04 09:16:13;;;;;;;;;7.00;7.00;;;;;21.57;31.32;101853.88;110006;1266;19348;-39
2023/05/04 09:18:41;;;;;;;;;7.00;7.00;;;;;21.60;31.19;101854.27;110027;1254;19618;-39
2023/05/04 09:21:08;;;;;;;;;7.00;7.00;;;;;21.63;31.20;101854.72;109999;1266;18648;-39
2023/05/04 09:23:35;;;;;;;;;7.00;7.00;;;;;21.56;31.16;101852.11;110052;1266;19671;-39
2023/05/04 09:26:03;;;;;;;;;7.50;7.50;;;;;21.56;31.15;101851.75;110058;1266;18263;-39
2023/05/04 09:28:31;;;;;;;;;8.00;7.00;;;;;21.54;31.07;101850.32;110016;1260;18547;-39
2023/05/04 09:30:58;;;;;;;;;8.00;7.00;;;;;21.56;30.99;101848.33;110036;1260;19398;-39
2023/05/04 09:33:26;;;;;;;;;5.00;5.00;;;;;21.57;31.06;101850.43;110056;1266;18777;-39
2023/05/04 09:35:53;;;;;;;;;7.00;7.00;;;;;21.53;31.24;101840.83;110070;1266;18775;-39
2023/05/04 09:38:20;;;;;;;;;7.50;7.00;;;;;21.58;31.39;101840.08;110024;1254;20879;-39
2023/05/04 09:40:48;;;;;;;;;8.00;8.00;;;;;21.57;31.39;101837.25;109998;1260;18443;-40
2023/05/04 09:43:15;;;;;;;;;8.00;7.00;;;;;21.56;31.39;101829.90;109971;1266;18614;-40
2023/05/04 09:45:42;;;;;;;;;9.00;9.00;;;;;21.58;31.45;101831.77;110106;1265;19375;-39
2023/05/04 09:48:10;;;;;;;;;10.00;8.00;;;;;21.57;31.32;101832.74;110218;1260;19410;-39
2023/05/04 09:50:38;;;;;;;;;10.00;7.00;;;;;21.56;31.21;101831.77;110210;1251;20007;-40
2023/05/04 09:53:06;;;;;;;;;9.00;8.00;;;;;21.55;31.26;101831.98;110186;1265;19316;-43
2023/05/04 09:55:33;;;;;;;;;8.00;8.00;;;;;21.58;31.19;101828.05;110167;1265;18580;-39
2023/05/04 09:58:01;;;;;;;;;10.50;8.00;;;;;21.61;31.09;101828.17;110186;1265;20902;-38
2023/05/04 10:00:28;;;;;;;;;9.00;7.50;;;;;21.69;31.08;101828.21;110099;1257;19483;-39
2023/05/04 10:02:55;;;;;;;;;8.00;7.00;;;;;21.72;31.51;101819.80;110144;1265;22769;-38
2023/05/04 10:05:23;;;;;;;;;8.00;7.67;;;;;21.71;31.40;101820.08;110114;1266;18647;-38
2023/05/04 10:07:50;;;;;;;;;13.00;10.50;;;;;21.68;31.29;101821.14;110147;1250;20909;-39
2023/05/04 10:10:18;;;;;;;;;10.00;10.00;;;;;21.63;30.97;101820.92;110199;1251;19568;-39
2023/05/04 10:12:45;;;;;;;;;11.50;10.00;;;;;21.56;30.92;101815.90;110194;1265;20022;-39
2023/05/04 10:15:13;;;;;;;;;13.50;11.00;;;;;21.52;30.83;101808.56;110211;1265;19755;-39
2023/05/04 10:17:40;;;;;;;;;10.67;10.67;;;;;21.55;30.92;101805.17;110248;1260;20080;-39
2023/05/04 10:20:07;;;;;;;;;10.00;10.00;;;;;21.55;30.98;101804.70;110186;1260;20054;-39
2023/05/04 10:22:35;;;;;;;;;10.00;8.00;;;;;21.53;30.68;101800.99;110187;1257;19611;-39
2023/05/04 10:25:02;;;;;;;;;10.00;10.00;;;;;21.48;30.52;101800.04;110208;1265;22095;-39
2023/05/04 10:27:29;;;;;;;;;14.00;10.00;;;;;21.45;30.35;101796.92;110147;1265;20105;-40
2023/05/04 10:29:57;;;;;;;;;10.00;8.00;;;;;21.47;30.59;101791.77;110210;1265;19339;-39
2023/05/04 10:32:24;;;;;;;;;8.00;8.00;;;;;21.50;30.52;101784.16;110164;1251;19991;-39
2023/05/04 10:34:51;;;;;;;;;7.00;7.00;;;;;21.54;31.02;101783.20;110171;1265;19548;-39
2023/05/04 10:37:19;;;;;;;;;7.50;7.50;;;;;21.57;31.08;101782.57;110163;1265;19419;-38
2023/05/04 10:39:46;;;;;;;;;;;;;;;21.60;31.35;101784.63;110164;1265;22515;-39
2023/05/04 10:42:14;;;;;;;;;8.00;8.00;;;;;21.61;31.60;101781.93;110221;1251;18125;-39
2023/05/04 10:44:41;;;;;;;;;11.00;11.00;;;;;21.59;30.89;101781.30;110249;1250;21696;-38
2023/05/04 10:47:09;;;;;;;;;10.00;10.00;;;;;21.54;30.18;101775.06;110235;1251;19715;-40
2023/05/04 10:49:36;;;;;;;;;10.00;10.00;;;;;21.56;29.42;101773.77;110219;1265;18851;-40
2023/05/04 10:52:04;;;;;;;;;14.00;13.00;;;;;21.52;29.36;101770.33;110190;1257;19350;-39
2023/05/04 10:54:31;;;;;;;;;13.00;13.00;;;;;21.56;29.46;101770.45;110184;1265;18882;-40
2023/05/04 10:56:58;;;;;;;;;11.00;11.00;;;;;21.51;29.99;101768.21;110251;1265;18724;-40
2023/05/04 10:59:26;;;;;;;;;15.00;13.50;;;;;21.44;29.93;101766.67;110218;1265;19324;-39
2023/05/04 11:01:53;;;;;;;;;16.00;14.00;;;;;21.42;30.11;101764.11;110222;1265;18654;-40
2023/05/04 11:04:21;;;;;;;;;11.00;11.00;;;;;21.36;29.68;101762.52;110264;1250;20037;-39
2023/05/04 11:06:49;;;;;;;;;13.00;11.00;;;;;21.35;29.93;101758.30;110256;1251;20697;-40
2023/05/04 11:09:16;;;;;;;;;13.50;12.00;;;;;21.31;30.14;101756.52;110241;1251;20034;-39
2023/05/04 11:11:44;;;;;;;;;13.00;11.00;;;;;21.24;30.17;101751.88;110240;1265;20055;-40
2023/05/04 11:14:11;;;;;;;;;11.00;10.50;;;;;21.25;29.97;101749.63;110201;1251;20974;-40